Time;durP1;ratioP1;P1;durP2;ratioP2;P2;SDS_P1;SDS_P2;PMS_P1;PMS_P2;Temp;Humidity;BMP_temperature;BMP_pressure;BME280_temperature;BME280_humidity;BME280_pressure;Samples;Min_cycle;Max_cycle;Signal;HPM_P1;HPM_P2
2022/12/07 00:01:31;;;;;;;5.97;3.65;;;;;;;;;;5029752;28;20409;-86
2022/12/07 00:04:00;;;;;;;5.38;3.08;;;;;;;;;;5026846;28;20052;-86
2022/12/07 00:06:26;;;;;;;5.25;3.78;;;;;;;;;;5026104;28;20049;-86
2022/12/07 00:08:51;;;;;;;7.78;4.50;;;;;;;;;;5027804;28;20459;-86
2022/12/07 00:11:23;;;;;;;7.17;4.60;;;;;;;;;;5026914;28;20384;-86
2022/12/07 00:13:52;;;;;;;7.95;5.10;;;;;;;;;;5027292;28;20564;-87
2022/12/07 00:16:18;;;;;;;9.10;5.90;;;;;;;;;;5028597;28;20080;-86
2022/12/07 00:18:44;;;;;;;12.20;7.15;;;;;;;;;;5044987;28;20029;-84
2022/12/07 00:21:09;;;;;;;12.10;7.70;;;;;;;;;;5032242;28;20440;-86
2022/12/07 00:23:34;;;;;;;9.50;6.07;;;;;;;;;;5035651;28;20041;-86
2022/12/07 00:26:03;;;;;;;10.33;5.80;;;;;;;;;;5030611;28;20292;-88
2022/12/07 00:28:28;;;;;;;9.25;5.93;;;;;;;;;;5024732;28;20045;-88
2022/12/07 00:30:59;;;;;;;8.27;5.20;;;;;;;;;;5027811;28;20057;-88
2022/12/07 00:33:24;;;;;;;8.23;5.40;;;;;;;;;;5028128;28;20524;-88
2022/12/07 00:35:54;;;;;;;7.57;4.63;;;;;;;;;;5027441;28;20045;-87
2022/12/07 00:38:20;;;;;;;6.77;4.23;;;;;;;;;;5015109;28;20040;-88
2022/12/07 00:40:53;;;;;;;6.17;3.97;;;;;;;;;;5027625;28;20269;-89
2022/12/07 00:43:18;;;;;;;8.00;5.65;;;;;;;;;;5020083;28;20053;-88
2022/12/07 00:45:43;;;;;;;7.30;4.97;;;;;;;;;;5023584;28;20501;-88
2022/12/07 00:48:08;;;;;;;6.13;3.93;;;;;;;;;;5026785;28;20034;-88
2022/12/07 00:50:33;;;;;;;6.50;4.20;;;;;;;;;;5027611;28;20060;-88
2022/12/07 00:52:59;;;;;;;7.53;4.90;;;;;;;;;;5027672;28;20084;-89
2022/12/07 00:55:24;;;;;;;8.10;4.95;;;;;;;;;;5027997;28;20429;-88
2022/12/07 00:57:49;;;;;;;7.63;4.93;;;;;;;;;;5027369;28;20080;-88
2022/12/07 01:00:14;;;;;;;6.63;4.77;;;;;;;;;;5027270;28;20041;-88
2022/12/07 01:02:40;;;;;;;8.20;5.32;;;;;;;;;;5027487;28;20392;-89
2022/12/07 01:05:05;;;;;;;8.73;5.37;;;;;;;;;;5027887;28;20463;-88
2022/12/07 01:07:33;;;;;;;7.53;4.78;;;;;;;;;;5036513;28;20063;-89
2022/12/07 01:09:59;;;;;;;5.97;4.00;;;;;;;;;;5039422;28;20030;-90
2022/12/07 01:12:24;;;;;;;8.43;5.05;;;;;;;;;;5026488;28;20672;-88
2022/12/07 01:14:49;;;;;;;10.63;6.23;;;;;;;;;;5028065;28;20033;-88
2022/12/07 01:17:14;;;;;;;10.00;6.27;;;;;;;;;;5027628;28;20064;-88
2022/12/07 01:19:39;;;;;;;8.87;5.83;;;;;;;;;;5027711;28;20076;-88
2022/12/07 01:22:04;;;;;;;8.93;6.13;;;;;;;;;;5027907;28;20060;-88
2022/12/07 01:24:30;;;;;;;11.07;6.30;;;;;;;;;;5027394;28;20037;-88
2022/12/07 01:26:55;;;;;;;9.63;5.93;;;;;;;;;;5027523;28;20041;-89
2022/12/07 01:29:20;;;;;;;11.17;6.47;;;;;;;;;;5027724;28;20037;-90
2022/12/07 01:31:48;;;;;;;9.27;6.20;;;;;;;;;;5028258;28;20276;-89
2022/12/07 01:34:13;;;;;;;10.35;6.20;;;;;;;;;;5027885;28;20048;-89
2022/12/07 01:36:38;;;;;;;9.17;6.23;;;;;;;;;;5028472;28;20558;-88
2022/12/07 01:39:04;;;;;;;10.60;6.07;;;;;;;;;;5028626;28;20038;-89
2022/12/07 01:41:31;;;;;;;8.27;5.68;;;;;;;;;;5028414;28;20782;-89
2022/12/07 01:44:11;;;;;;;8.60;5.00;;;;;;;;;;5028537;28;20501;-89
2022/12/07 01:46:37;;;;;;;8.50;5.83;;;;;;;;;;5027718;28;20112;-88
2022/12/07 01:49:03;;;;;;;9.23;5.65;;;;;;;;;;5031689;28;20136;-88
2022/12/07 01:51:29;;;;;;;7.68;5.05;;;;;;;;;;5030858;28;20140;-88
2022/12/07 01:53:54;;;;;;;7.15;4.75;;;;;;;22.38;60.88;54028.00;5031041;28;20113;-89
2022/12/07 01:56:23;;;;;;;8.18;5.68;;;;;;;;;;5031122;28;20037;-88
2022/12/07 01:58:49;;;;;;;8.70;5.60;;;;;;;;;;5030957;28;20093;-90
2022/12/07 02:01:14;;;;;;;8.63;5.13;;;;;;;;;;5031774;28;20045;-88
2022/12/07 02:03:40;;;;;;;6.88;4.93;;;;;;;;;;5028804;28;20542;-88
2022/12/07 02:06:06;;;;;;;8.85;5.10;;;;;;;;;;5023381;28;20033;-91
2022/12/07 02:08:32;;;;;;;7.47;5.05;;;;;;;;;;5030730;28;20605;-88
2022/12/07 02:10:57;;;;;;;8.98;6.25;;;;;;;;;;5031830;28;20033;-88
2022/12/07 02:13:24;;;;;;;11.13;6.88;;;;;;;;;;5032967;28;20025;-89
2022/12/07 02:15:59;;;;;;;10.23;6.60;;;;;;;;;;5031632;28;20725;-88
2022/12/07 02:18:30;;;;;;;12.57;7.57;;;;;;;;;;5014745;28;20029;-88
2022/12/07 02:21:05;;;;;;;13.95;8.48;;;;;;;;;;5030242;28;20048;-88
2022/12/07 02:24:00;;;;;;;11.27;7.25;;;;;;;;;;5030070;28;20037;-87
2022/12/07 02:26:44;;;;;;;11.00;6.95;;;;;;;;;;5020831;28;25433;-88
2022/12/07 02:29:11;;;;;;;10.90;6.60;;;;;;;;;;5029090;28;20041;-88
2022/12/07 02:31:38;;;;;;;13.35;7.30;;;;;;;;;;5029718;28;20044;-88
2022/12/07 02:34:09;;;;;;;11.80;6.88;;;;;;;;;;5030335;28;20250;-89
2022/12/07 02:36:42;;;;;;;10.75;6.25;;;;;;;;;;5029339;28;20033;-88
2022/12/07 02:39:11;;;;;;;9.30;6.35;;;;;;;;;;5029804;28;20041;-88
2022/12/07 02:41:40;;;;;;;10.00;5.80;;;;;;;;;;5029826;28;20112;-88
2022/12/07 02:44:08;;;;;;;7.95;5.13;;;;;;;;;;5029140;28;20400;-89
2022/12/07 02:46:36;;;;;;;7.78;5.20;;;;;;;;;;5023710;28;20026;-88
2022/12/07 02:49:02;;;;;;;7.40;4.63;;;;;;;;;;5029247;28;20060;-89
2022/12/07 02:51:29;;;;;;;7.85;4.70;;;;;;;;;;5029240;28;20038;-89
2022/12/07 02:53:54;;;;;;;8.30;5.20;;;;;;;;;;5029444;28;20045;-87
2022/12/07 02:56:20;;;;;;;9.50;5.30;;;;;;;;;;5029124;28;20518;-88
2022/12/07 02:58:45;;;;;;;11.05;6.22;;;;;;;;;;5029885;28;20044;-89
2022/12/07 03:01:10;;;;;;;10.15;6.90;;;;;;;;;;5028915;28;20099;-88
2022/12/07 03:03:37;;;;;;;12.47;7.40;;;;;;;;;;5029450;28;20056;-88
2022/12/07 03:06:08;;;;;;;11.68;7.75;;;;;;;;;;5029093;28;20504;-88
2022/12/07 03:08:46;;;;;;;11.23;7.05;;;;;;;;;;5028814;28;20033;-88
2022/12/07 03:11:30;;;;;;;11.32;7.38;;;;;;;;;;5029176;28;20029;-87
2022/12/07 03:13:56;;;;;;;11.65;7.63;;;;;;;;;;5031301;28;20030;-89
2022/12/07 03:16:30;;;;;;;12.27;7.80;;;;;;;;;;5029147;28;20044;-89
2022/12/07 03:18:58;;;;;;;13.05;7.88;;;;;;;;;;5029174;28;20033;-88
2022/12/07 03:21:25;;;;;;;10.05;6.18;;;;;;;;;;5030410;28;20555;-88
2022/12/07 03:23:53;;;;;;;10.65;6.35;;;;;;;;;;5029315;28;20044;-89
2022/12/07 03:26:19;;;;;;;10.07;6.50;;;;;;;;;;5009069;28;20044;-88
2022/12/07 03:28:48;;;;;;;14.00;7.85;;;;;;;;;;5028248;28;20037;-88
2022/12/07 03:31:19;;;;;;;12.07;7.95;;;;;;;;;;5029532;28;20084;-88
2022/12/07 03:33:48;;;;;;;12.87;7.97;;;;;;;;;;5028843;28;20405;-88
2022/12/07 03:36:26;;;;;;;14.65;8.38;;;;;;;;;;5027796;28;20041;-89
2022/12/07 03:38:54;;;;;;;13.82;7.93;;;;;;;;;;5029150;28;20112;-88
2022/12/07 03:41:24;;;;;;;13.57;8.10;;;;;;;;;;5029008;28;20412;-88
2022/12/07 03:43:50;;;;;;;13.13;7.85;;;;;;;;;;5029157;28;20069;-88
2022/12/07 03:46:27;;;;;;;12.07;7.50;;;;;;;;;;5028514;28;20068;-89
2022/12/07 03:48:59;;;;;;;12.65;7.95;;;;;;;;;;5028761;28;20092;-88
2022/12/07 03:51:30;;;;;;;11.00;7.03;;;;;;;;;;5028660;28;20776;-87
2022/12/07 03:53:56;;;;;;;;;;;;;;;;;;5029182;28;20064;-89
2022/12/07 03:56:22;;;;;;;13.75;7.88;;;;;;;;;;5027880;28;19948;-88
2022/12/07 03:58:48;;;;;;;11.25;6.93;;;;;;;;;;5028565;28;20037;-88
2022/12/07 04:01:13;;;;;;;11.85;7.32;;;;;;;;;;5028330;28;20576;-88
2022/12/07 04:03:38;;;;;;;11.07;6.90;;;;;;;;;;5028249;28;20125;-89
2022/12/07 04:06:04;;;;;;;11.60;7.67;;;;;;;;;;5028275;28;20300;-88
2022/12/07 04:08:29;;;;;;;11.73;7.43;;;;;;;;;;5027319;28;20136;-88
2022/12/07 04:10:54;;;;;;;14.10;8.17;;;;;;;;;;5025630;28;20041;-88
2022/12/07 04:13:19;;;;;;;13.27;7.73;;;;;;;;;;5025495;28;20061;-86
2022/12/07 04:15:44;;;;;;;12.33;8.03;;;;;;;;;;5026633;28;20581;-85
2022/12/07 04:18:10;;;;;;;10.95;7.15;;;;;;;;;;5028095;28;20299;-87
2022/12/07 04:20:35;;;;;;;13.57;8.37;;;;;;;;;;5027845;28;20392;-87
2022/12/07 04:23:00;;;;;;;11.73;7.10;;;;;;;;;;5024241;28;20858;-87
2022/12/07 04:25:25;;;;;;;12.40;7.90;;;;;;;;;;5028634;28;20038;-86
2022/12/07 04:27:50;;;;;;;12.33;7.73;;;;;;;;;;5026988;28;20276;-87
2022/12/07 04:30:16;;;;;;;12.18;7.28;;;;;;;;;;5024624;28;20300;-86
2022/12/07 04:32:41;;;;;;;12.45;7.70;;;;;;;;;;5028168;28;20102;-84
2022/12/07 04:35:06;;;;;;;11.37;7.23;;;;;;;;;;5042765;28;20465;-86
2022/12/07 04:37:32;;;;;;;12.45;7.55;;;;;;;;;;5031432;28;20038;-89
2022/12/07 04:39:57;;;;;;;12.80;7.90;;;;;;;;;;5030910;28;20068;-86
2022/12/07 04:42:22;;;;;;;10.37;7.27;;;;;;;;;;5026689;28;20038;-87
2022/12/07 04:44:47;;;;;;;11.73;7.67;;;;;;;;;;5019577;28;20505;-89
2022/12/07 04:47:12;;;;;;;9.47;6.33;;;;;;;;;;5019971;28;20120;-87
2022/12/07 04:49:38;;;;;;;8.77;5.70;;;;;;;;;;5026952;28;20075;-87
2022/12/07 04:52:03;;;;;;;8.17;5.30;;;;;;;;;;5030641;28;20323;-86
2022/12/07 04:54:28;;;;;;;11.80;6.43;;;;;;;;;;5032006;28;20512;-87
2022/12/07 04:56:53;;;;;;;12.45;8.05;;;;;;;;;;5025893;28;20038;-86
2022/12/07 04:59:18;;;;;;;13.67;8.20;;;;;;;;;;5027951;28;20034;-89
2022/12/07 05:01:44;;;;;;;11.70;7.40;;;;;;;;;;5028846;28;20280;-86
2022/12/07 05:04:09;;;;;;;11.63;7.33;;;;;;;;;;5028343;28;20056;-86
2022/12/07 05:06:34;;;;;;;13.00;7.55;;;;;;;;;;5029388;28;20050;-87
2022/12/07 05:09:00;;;;;;;10.82;6.60;;;;;;;;;;5028397;28;20052;-85
2022/12/07 05:11:40;;;;;;;12.57;7.57;;;;;;;;;;5026304;28;20405;-86
2022/12/07 05:14:05;;;;;;;11.30;7.05;;;;;;;;;;5021905;28;20481;-86
2022/12/07 05:16:31;;;;;;;10.80;7.40;;;;;;;;;;5027257;28;20555;-88
2022/12/07 05:18:56;;;;;;;10.30;7.17;;;;;;;;;;5026637;28;20109;-86
2022/12/07 05:21:21;;;;;;;11.87;6.90;;;;;;;;;;5027227;28;20826;-86
2022/12/07 05:23:46;;;;;;;9.82;6.38;;;;;;;;;;5018793;28;20128;-86
2022/12/07 05:26:12;;;;;;;11.17;7.17;;;;;;;;;;5030395;28;20037;-86
2022/12/07 05:28:37;;;;;;;8.82;5.63;;;;;;;;;;5033832;28;20117;-85
2022/12/07 05:31:03;;;;;;;9.82;6.50;;;;;;;;;;5033900;28;20044;-86
2022/12/07 05:33:28;;;;;;;14.13;7.25;;;;;;;;;;5032388;28;20511;-86
2022/12/07 05:35:53;;;;;;;10.38;6.40;;;;;;;;;;5033525;28;20041;-86
2022/12/07 05:38:18;;;;;;;9.40;6.40;;;;;;;;;;5030981;28;20439;-86
2022/12/07 05:40:43;;;;;;;10.43;6.43;;;;;;;;;;5026625;28;20125;-87
2022/12/07 05:43:09;;;;;;;9.70;6.30;;;;;;;;;;5032572;28;20033;-86
2022/12/07 05:45:34;;;;;;;11.02;6.75;;;;;;;;;;5032783;28;20272;-88
2022/12/07 05:47:59;;;;;;;10.77;7.50;;;;;;;;;;5031777;28;20045;-86
2022/12/07 05:50:24;;;;;;;11.83;7.40;;;;;;;;;;5031118;28;20026;-87
2022/12/07 05:52:49;;;;;;;12.25;7.05;;;;;;;;;;5031974;28;20061;-86
2022/12/07 05:55:15;;;;;;;11.17;7.40;;;;;;;;;;5031976;28;20099;-86
2022/12/07 05:59:22;;;;;;;13.00;6.90;;;;;;;;;;5032856;28;20037;-86
2022/12/07 06:00:26;;;;;;;14.05;7.15;;;;;;;22.38;100.00;120362.75;5028154;28;20272;-86
2022/12/07 06:02:51;;;;;;;12.93;7.85;;;;;;;;;;5048937;28;20044;-85
2022/12/07 06:05:16;;;;;;;12.27;7.75;;;;;;;;;;5050556;28;20467;-85
2022/12/07 06:07:41;;;;;;;12.23;6.93;;;;;;;;;;5050975;28;20129;-84
2022/12/07 06:10:07;;;;;;;11.83;6.27;;;;;;;;;;5048283;28;20272;-86
2022/12/07 06:12:35;;;;;;;9.90;6.55;;;;;;;;;;5049096;28;20639;-85
2022/12/07 06:15:00;;;;;;;10.27;6.20;;;;;;;;;;5048139;28;20044;-87
2022/12/07 06:17:26;;;;;;;10.00;6.22;;;;;;;;;;5046369;28;20033;-85
2022/12/07 06:19:51;;;;;;;8.95;5.80;;;;;;;;;;5045025;28;20120;-86
2022/12/07 06:22:17;;;;;;;10.55;6.07;;;;;;;;;;5042928;28;20033;-86
2022/12/07 06:24:42;;;;;;;8.80;5.90;;;;;;;;;;5043823;28;20034;-86
2022/12/07 06:27:08;;;;;;;9.43;5.82;;;;;;;;;;5043663;28;20048;-85
2022/12/07 06:29:33;;;;;;;10.27;6.40;;;;;;;;;;5039866;28;20034;-88
2022/12/07 06:31:58;;;;;;;7.73;5.40;;;;;;;;;;5030591;28;20044;-90
2022/12/07 06:34:24;;;;;;;8.30;5.63;;;;;;;;;;5028199;28;20026;-88
2022/12/07 06:36:51;;;;;;;8.20;5.43;;;;;;;;;;5030314;28;20276;-88
2022/12/07 06:39:21;;;;;;;9.88;5.25;;;;;;;;;;5029860;28;20033;-88
2022/12/07 06:41:46;;;;;;;8.75;5.25;;;;;;;;;;5026698;28;20034;-88
2022/12/07 06:44:11;;;;;;;8.50;5.35;;;;;;;;;;5021132;28;20698;-88
2022/12/07 06:46:36;;;;;;;8.85;6.20;;;;;;;;;;5026637;28;20050;-88
2022/12/07 06:49:02;;;;;;;9.68;6.30;;;;;;;;;;5027867;28;20513;-88
2022/12/07 06:51:27;;;;;;;10.32;5.85;;;;;;;;;;5033807;28;20114;-88
2022/12/07 06:53:52;;;;;;;9.23;5.80;;;;;;;;;;5030680;28;20121;-88
2022/12/07 06:56:18;;;;;;;8.73;5.80;;;;;;;;;;5035032;28;20037;-88
2022/12/07 06:58:43;;;;;;;8.25;5.68;;;;;;;;;;5031423;28;20037;-88
2022/12/07 07:01:12;;;;;;;11.03;6.30;;;;;;;;;;5033426;28;20034;-88
2022/12/07 07:03:37;;;;;;;11.10;7.22;;;;;;;;;;5017921;28;20288;-89
2022/12/07 07:06:02;;;;;;;10.10;6.32;;;;;;;;;;5032542;28;20044;-85
2022/12/07 07:08:27;;;;;;;10.98;6.57;;;;;;;;;;5037194;28;20083;-87
2022/12/07 07:10:53;;;;;;;11.97;7.63;;;;;;;;;;5036906;28;20033;-85
2022/12/07 07:13:18;;;;;;;12.50;7.67;;;;;;;;;;5038412;28;20103;-86
2022/12/07 07:15:43;;;;;;;10.75;7.40;;;;;;;;;;5037333;28;20128;-85
2022/12/07 07:18:08;;;;;;;16.02;7.97;;;;;;;;;;5036518;28;20060;-86
2022/12/07 07:20:34;;;;;;;11.53;7.33;;;;;;;;;;5037741;28;20033;-84
2022/12/07 07:22:59;;;;;;;11.88;7.93;;;;;;;;;;5037582;28;20034;-86
2022/12/07 07:25:24;;;;;;;9.90;6.63;;;;;;;;;;5038379;28;20057;-86
2022/12/07 07:27:49;;;;;;;10.27;7.07;;;;;;;;;;5036716;28;20037;-86
2022/12/07 07:30:15;;;;;;;10.77;6.80;;;;;;;;;;5036483;28;20030;-86
2022/12/07 07:32:41;;;;;;;10.30;6.78;;;;;;;;;;5037877;28;20276;-86
2022/12/07 07:35:06;;;;;;;10.25;6.32;;;;;;;;;;5040328;28;20056;-87
2022/12/07 07:37:31;;;;;;;10.07;6.28;;;;;;;;;;5044005;28;20052;-85
2022/12/07 07:39:57;;;;;;;9.75;6.47;;;;;;;;;;5048021;28;20041;-84
2022/12/07 07:42:22;;;;;;;12.57;7.47;;;;;;;;;;5038703;28;20041;-85
2022/12/07 07:44:47;;;;;;;11.32;7.55;;;;;;;;;;5035810;28;20065;-84
2022/12/07 07:47:12;;;;;;;12.95;8.05;;;;;;;;;;5036273;28;20444;-85
2022/12/07 07:49:38;;;;;;;12.37;7.73;;;;;;;;;;5036342;28;20071;-84
2022/12/07 07:52:05;;;;;;;16.05;8.85;;;;;;;;;;5037183;28;20371;-84
2022/12/07 07:54:30;;;;;;;17.35;10.52;;;;;;;;;;5041089;28;20041;-85
2022/12/07 07:56:55;;;;;;;14.85;9.85;;;;;;;;;;5040532;28;20029;-85
2022/12/07 07:59:20;;;;;;;12.15;8.05;;;;;;;;;;5038993;28;20065;-85
2022/12/07 08:01:47;;;;;;;15.68;9.68;;;;;;;;;;5031235;28;20136;-83
2022/12/07 08:04:15;;;;;;;12.52;8.52;;;;;;;;;;5037761;28;20076;-84
2022/12/07 08:06:42;;;;;;;13.57;8.38;;;;;;;;;;5036172;28;20071;-84
2022/12/07 08:09:08;;;;;;;13.93;8.65;;;;;;;;;;5036156;28;20400;-85
2022/12/07 08:11:33;;;;;;;14.15;8.85;;;;;;;;;;5035722;28;20061;-85
2022/12/07 08:13:58;;;;;;;13.25;8.77;;;;;;;;;;5035500;28;20048;-84
2022/12/07 08:16:23;;;;;;;15.40;9.67;;;;;;;;;;5036016;28;20536;-85
2022/12/07 08:18:48;;;;;;;13.00;9.00;;;;;;;;;;5033230;28;20042;-84
2022/12/07 08:21:15;;;;;;;14.45;9.35;;;;;;;;;;5035638;28;20047;-84
2022/12/07 08:23:40;;;;;;;13.07;8.45;;;;;;;;;;5032112;28;20301;-84
2022/12/07 08:26:15;;;;;;;12.63;8.27;;;;;;;;;;5034571;28;20037;-84
2022/12/07 08:28:41;;;;;;;13.75;9.10;;;;;;;;;;5033551;28;20095;-84
2022/12/07 08:31:09;;;;;;;15.55;9.90;;;;;;;;;;5034710;28;20494;-84
2022/12/07 08:33:35;;;;;;;15.27;9.52;;;;;;;;;;5035009;28;20033;-84
2022/12/07 08:36:01;;;;;;;15.65;9.23;;;;;;;;;;5032901;28;20037;-89
2022/12/07 08:38:26;;;;;;;16.30;10.02;;;;;;;;;;5027240;28;20504;-90
2022/12/07 08:40:55;;;;;;;14.60;9.37;;;;;;;;;;5027622;28;20065;-87
2022/12/07 08:43:21;;;;;;;14.23;9.00;;;;;;;;;;5038900;28;20037;-90
2022/12/07 08:45:47;;;;;;;15.68;9.73;;;;;;;;;;5028316;28;20169;-88
2022/12/07 08:48:13;;;;;;;14.73;9.35;;;;;;;;;;5028440;28;20037;-90
2022/12/07 08:50:38;;;;;;;13.35;8.95;;;;;;;;;;5027548;28;20037;-88
2022/12/07 08:53:05;;;;;;;15.60;9.30;;;;;;;;;;5028361;28;20059;-89
2022/12/07 08:55:30;;;;;;;13.55;9.05;;;;;;;;;;5029554;28;20171;-88
2022/12/07 08:57:57;;;;;;;13.43;8.82;;;;;;;;;;5028473;28;20037;-88
2022/12/07 09:00:25;;;;;;;13.85;9.13;;;;;;;;;;5027128;28;20030;-88
2022/12/07 09:02:51;;;;;;;13.55;9.32;;;;;;;;;;5027555;28;20042;-88
2022/12/07 09:05:16;;;;;;;15.60;9.45;;;;;;;;;;5028924;28;20059;-88
2022/12/07 09:07:42;;;;;;;15.77;9.30;;;;;;;;;;5029267;28;20064;-88
2022/12/07 09:10:08;;;;;;;15.13;9.98;;;;;;;;;;5027750;28;20393;-89
2022/12/07 09:12:33;;;;;;;14.93;9.65;;;;;;;;;;5028519;28;20026;-87
2022/12/07 09:15:00;;;;;;;15.18;9.20;;;;;;;;;;5028232;28;20044;-90
2022/12/07 09:17:25;;;;;;;17.33;9.88;;;;;;;;;;5027513;28;20037;-89
2022/12/07 09:19:51;;;;;;;14.80;8.77;;;;;;;;;;5029923;28;20112;-88
2022/12/07 09:22:16;;;;;;;16.50;9.65;;;;;;;;;;5027749;28;20038;-87
2022/12/07 09:24:41;;;;;;;16.33;9.57;;;;;;;;;;5029418;28;20204;-86
2022/12/07 09:27:06;;;;;;;17.60;10.00;;;;;;;;;;5028163;28;20026;-86
2022/12/07 09:29:31;;;;;;;13.83;9.17;;;;;;;;;;5028630;28;20045;-86
2022/12/07 09:31:57;;;;;;;13.27;9.27;;;;;;;23.69;nan;87391.13;5029261;28;20499;-85
2022/12/07 09:34:23;;;;;;;16.30;9.18;;;;;;;;;;5029118;28;20044;-87
2022/12/07 09:36:48;;;;;;;14.77;9.38;;;;;;;;;;5027455;28;20091;-86
2022/12/07 09:39:13;;;;;;;15.80;9.77;;;;;;;;;;5026058;28;20037;-86
2022/12/07 09:41:41;;;;;;;16.33;9.15;;;;;;;;;;5031573;28;20113;-86
2022/12/07 09:44:07;;;;;;;16.13;10.43;;;;;;;;;;5028806;28;20112;-86
2022/12/07 09:46:37;;;;;;;16.75;10.40;;;;;;;;;;5029743;28;20088;-86
2022/12/07 09:49:02;;;;;;;17.08;10.30;;;;;;;;;;5029016;28;20041;-86
2022/12/07 09:51:28;;;;;;;17.02;10.90;;;;;;;;;;5027161;28;20116;-86
2022/12/07 09:53:54;;;;;;;17.42;10.68;;;;;;;;;;5028078;28;20072;-87
2022/12/07 09:56:20;;;;;;;18.80;10.88;;;;;;;;;;5029048;28;20037;-86
2022/12/07 09:58:45;;;;;;;17.55;10.82;;;;;;;;;;5028070;28;20045;-87
2022/12/07 10:01:15;;;;;;;16.05;10.02;;;;;;;;;;5024161;28;20125;-85
2022/12/07 10:03:44;;;;;;;15.80;10.13;;;;;;;;;;5029273;28;20041;-86
2022/12/07 10:06:10;;;;;;;14.98;9.23;;;;;;;;;;5030567;28;20158;-87
2022/12/07 10:08:36;;;;;;;16.38;9.48;;;;;;;22.54;100.00;159588.97;5030868;28;20048;-86
2022/12/07 10:11:03;;;;;;;14.63;9.50;;;;;;;;;;5032265;28;20038;-87
2022/12/07 10:13:38;;;;;;;15.57;10.18;;;;;;;;;;5034541;28;20484;-86
2022/12/07 10:16:04;;;;;;;18.45;10.73;;;;;;;;;;5030815;28;20132;-86
2022/12/07 10:18:31;;;;;;;15.38;9.90;;;;;;;;;;5031139;28;20045;-87
2022/12/07 10:21:16;;;;;;;18.23;10.90;;;;;;;;;;5036851;28;20110;-87
2022/12/07 10:24:00;;;;;;;14.43;9.70;;;;;;;;;;5042228;28;20513;-85
2022/12/07 10:26:44;;;;;;;18.65;10.85;;;;;;;;;;5026445;28;20109;-87
2022/12/07 10:29:15;;;;;;;14.95;9.90;;;;;;;;;;5032457;28;20041;-86
2022/12/07 10:31:40;;;;;;;15.52;9.73;;;;;;;;;;5032010;28;20056;-87
2022/12/07 10:34:14;;;;;;;15.50;10.15;;;;;;;;;;5031064;28;20091;-88
2022/12/07 10:36:39;;;;;;;15.35;9.95;;;;;;;;;;5027581;28;20568;-87
2022/12/07 10:39:13;;;;;;;16.08;9.68;;;;;;;;;;5029646;28;20068;-87
2022/12/07 10:41:57;;;;;;;13.90;8.82;;;;;;;;;;5025945;28;20056;-86
2022/12/07 10:44:27;;;;;;;13.82;9.15;;;;;;;;;;5021545;28;20034;-87
2022/12/07 10:46:58;;;;;;;17.75;10.10;;;;;;;;;;5025875;28;20045;-87
2022/12/07 10:49:29;;;;;;;17.25;10.23;;;;;;;;;;5030157;28;20041;-87
2022/12/07 10:52:31;;;;;;;16.05;10.15;;;;;;;;;;5028223;28;20501;-87
2022/12/07 10:55:12;;;;;;;16.38;9.75;;;;;;;;;;4965394;28;20050;-87
2022/12/07 10:57:43;;;;;;;18.27;10.20;;;;;;;;;;5022006;28;20037;-86
2022/12/07 11:00:09;;;;;;;;;;;;;;;;;;5031113;28;20467;-86
2022/12/07 11:02:40;;;;;;;15.82;10.32;;;;;;;;;;5031361;28;19916;-87
2022/12/07 11:05:05;;;;;;;;;;;;;;;;;;5034336;28;20033;-86
2022/12/07 11:07:40;;;;;;;15.80;10.33;;;;;;;;;;5036518;28;19944;-86
2022/12/07 11:10:09;;;;;;;17.13;10.90;;;;;;;;;;5037538;28;20033;-87
2022/12/07 11:12:42;;;;;;;16.38;10.75;;;;;;;;;;5033294;28;20032;-87
2022/12/07 11:15:13;;;;;;;17.02;11.15;;;;;;;;;;5034085;28;20044;-87
2022/12/07 11:17:51;;;;;;;17.17;10.75;;;;;;;;;;5031273;28;20040;-85
2022/12/07 11:20:22;;;;;;;21.73;11.50;;;;;;;;;;5030627;28;20033;-87
2022/12/07 11:22:56;;;;;;;17.23;11.05;;;;;;;;;;5030987;28;20516;-87
2022/12/07 11:25:40;;;;;;;18.33;10.40;;;;;;;;;;5031395;28;20036;-86
2022/12/07 11:28:14;;;;;;;16.00;10.05;;;;;;;;;;5031902;28;20064;-87
2022/12/07 11:30:46;;;;;;;17.80;10.82;;;;;;;;;;5030774;28;20409;-86
2022/12/07 11:33:11;;;;;;;;;;;;;;;;;;5030767;28;20528;-87
2022/12/07 11:35:47;;;;;;;16.73;10.13;;;;;;;;;;5031435;28;19959;-86
2022/12/07 11:38:16;;;;;;;15.43;10.77;;;;;;;;;;5030323;28;20315;-86
2022/12/07 11:40:45;;;;;;;17.02;10.85;;;;;;;;;;5031831;28;20037;-87
2022/12/07 11:43:25;;;;;;;16.23;10.35;;;;;;;;;;5031376;28;20630;-87
2022/12/07 11:45:54;;;;;;;17.02;10.30;;;;;;;;;;5031626;28;20034;-87
2022/12/07 11:48:42;;;;;;;18.73;11.10;;;;;;;;;;5023278;28;20063;-87
2022/12/07 11:51:09;;;;;;;16.65;10.73;;;;;;;;;;5028645;28;20045;-86
2022/12/07 11:53:37;;;;;;;17.83;11.45;;;;;;;;;;5029528;28;20552;-86
2022/12/07 11:56:09;;;;;;;15.20;9.95;;;;;;;;;;5028893;28;20037;-87
2022/12/07 11:58:47;;;;;;;15.38;9.88;;;;;;;;;;5029382;28;20026;-87
2022/12/07 12:01:39;;;;;;;16.63;9.75;;;;;;;;;;5030152;28;20044;-86
2022/12/07 12:04:07;;;;;;;14.38;9.77;;;;;;;;;;5027547;28;20045;-87
2022/12/07 12:06:34;;;;;;;14.68;9.48;;;;;;;;;;5040751;28;20025;-87
2022/12/07 12:09:06;;;;;;;16.25;10.32;;;;;;;;;;5049668;28;20033;-86
2022/12/07 12:12:10;;;;;;;15.90;10.20;;;;;;;;;;5049013;28;20063;-86
2022/12/07 12:14:35;;;;;;;16.20;10.05;;;;;;;;;;5009636;28;20261;-86
2022/12/07 12:17:19;;;;;;;14.77;9.48;;;;;;;;;;5010523;28;20038;-86
2022/12/07 12:19:53;;;;;;;16.23;10.23;;;;;;;;;;5026391;28;20138;-85
2022/12/07 12:22:20;;;;;;;15.38;10.23;;;;;;;;;;5042995;28;20075;-86
2022/12/07 12:24:48;;;;;;;16.42;9.85;;;;;;;;;;5051540;28;20037;-86
2022/12/07 12:27:22;;;;;;;15.60;10.25;;;;;;;;;;5052206;28;20024;-85
2022/12/07 12:29:51;;;;;;;15.10;9.63;;;;;;;;;;5052646;28;20052;-86
2022/12/07 12:32:18;;;;;;;14.57;9.85;;;;;;;;;;5050824;28;20049;-85
2022/12/07 12:34:43;;;;;;;12.80;8.48;;;;;;;;;;5052664;28;20041;-86
2022/12/07 12:37:31;;;;;;;14.87;9.50;;;;;;;;;;5053685;28;20092;-86
2022/12/07 12:40:15;;;;;;;15.00;9.93;;;;;;;;;;5042413;28;20041;-86
2022/12/07 12:42:51;;;;;;;14.38;9.25;;;;;;;;;;5038515;28;20538;-87
2022/12/07 12:45:21;;;;;;;13.70;9.43;;;;;;;;;;5034057;28;20068;-86
2022/12/07 12:47:52;;;;;;;13.77;8.90;;;;;;;;;;5033021;28;20136;-85
2022/12/07 12:50:19;;;;;;;14.05;9.70;;;;;;;;;;5031589;28;20128;-86
2022/12/07 12:52:48;;;;;;;12.98;8.43;;;;;;;;;;5033468;28;20088;-86
2022/12/07 12:55:20;;;;;;;13.95;9.30;;;;;;;;;;5032773;28;20045;-86
2022/12/07 12:57:45;;;;;;;16.80;10.10;;;;;;;;;;5033549;28;20091;-86
2022/12/07 13:00:13;;;;;;;18.48;10.85;;;;;;;;;;5031417;28;20038;-86
2022/12/07 13:02:46;;;;;;;16.20;10.90;;;;;;;;;;5032296;28;20068;-86
2022/12/07 13:05:12;;;;;;;15.73;9.95;;;;;;;;;;5036985;28;20037;-87
2022/12/07 13:07:46;;;;;;;19.10;10.20;;;;;;;;;;5035329;28;20083;-85
2022/12/07 13:10:29;;;;;;;16.23;9.98;;;;;;;;;;5030656;28;20046;-86
2022/12/07 13:12:57;;;;;;;13.93;9.70;;;;;;;;;;5031363;28;20037;-86
2022/12/07 13:15:31;;;;;;;15.45;10.02;;;;;;;;;;5033450;28;20029;-85
2022/12/07 13:17:58;;;;;;;15.90;9.73;;;;;;;;;;5024730;28;20493;-86
2022/12/07 13:20:40;;;;;;;15.10;9.35;;;;;;;;;;5025313;28;20055;-85
2022/12/07 13:23:06;;;;;;;14.10;8.88;;;;;;;;;;5031193;28;20038;-85
2022/12/07 13:25:37;;;;;;;14.60;9.13;;;;;;;;;;5028703;28;20094;-86
2022/12/07 13:28:03;;;;;;;11.32;7.80;;;;;;;;;;5026911;28;20045;-86
2022/12/07 13:30:29;;;;;;;12.95;7.57;;;;;;;;;;5025195;28;20041;-85
2022/12/07 13:32:56;;;;;;;10.30;6.80;;;;;;;;;;5024583;28;20042;-85
2022/12/07 13:35:28;;;;;;;10.25;6.35;;;;;;;;;;5026313;28;20045;-86
2022/12/07 13:37:53;;;;;;;12.52;7.63;;;;;;;;;;5026448;28;20084;-86
2022/12/07 13:40:19;;;;;;;9.60;6.65;;;;;;;;;;5028355;28;20196;-86
2022/12/07 13:42:45;;;;;;;12.35;8.15;;;;;;;;;;5026581;28;20064;-86
2022/12/07 13:45:49;;;;;;;11.60;7.90;;;;;;;;;;5023416;28;20046;-86
2022/12/07 13:48:23;;;;;;;13.60;7.82;;;;;;;;;;5027608;28;20037;-86
2022/12/07 13:50:53;;;;;;;14.38;8.65;;;;;;;;;;5028207;28;20112;-86
2022/12/07 13:53:18;;;;;;;11.68;7.93;;;;;;;;;;5030981;28;20133;-86
2022/12/07 13:55:44;;;;;;;10.60;7.07;;;;;;;;;;5032543;28;20502;-87
2022/12/07 13:58:10;;;;;;;10.00;6.93;;;;;;;;;;5031218;28;20041;-86
2022/12/07 14:00:35;;;;;;;10.63;5.93;;;;;;;;;;5032526;28;20634;-87
2022/12/07 14:03:21;;;;;;;9.95;5.57;;;;;;;;;;5031582;28;20033;-87
2022/12/07 14:05:46;;;;;;;9.57;4.75;;;;;;;;;;5033638;28;20265;-86
2022/12/07 14:08:11;;;;;;;8.13;4.50;;;;;;;;;;5031333;28;20030;-87
2022/12/07 14:10:38;;;;;;;6.03;4.00;;;;;;;;;;5031875;28;20049;-86
2022/12/07 14:13:22;;;;;;;6.57;4.03;;;;;;;;;;5030410;28;20041;-87
2022/12/07 14:15:49;;;;;;;5.40;3.63;;;;;;;;;;5032343;28;20497;-86
2022/12/07 14:18:33;;;;;;;4.45;2.90;;;;;;;;;;5023149;28;20033;-87
2022/12/07 14:21:04;;;;;;;5.40;2.95;;;;;;;;;;5031977;28;20501;-86
2022/12/07 14:23:29;;;;;;;5.50;3.10;;;;;;;;;;5031264;28;20029;-87
2022/12/07 14:26:05;;;;;;;3.57;2.57;;;;;;;;;;5031082;28;20117;-85
2022/12/07 14:28:33;;;;;;;5.00;3.47;;;;;;;;;;5031302;28;20554;-87
2022/12/07 14:31:00;;;;;;;6.78;3.83;;;;;;;;;;5032585;28;20041;-86
2022/12/07 14:33:25;;;;;;;7.90;3.72;;;;;;;;;;5030732;28;20064;-86
2022/12/07 14:35:54;;;;;;;6.25;3.50;;;;;;;;;;5031040;28;20505;-86
2022/12/07 14:38:20;;;;;;;6.50;3.58;;;;;;;;;;5031275;28;20033;-86